Time;durP1;ratioP1;P1;durP2;ratioP2;P2;SDS_P1;SDS_P2;PMS_P1;PMS_P2;Temp;Humidity;BMP_temperature;BMP_pressure;BME280_temperature;BME280_humidity;BME280_pressure;Samples;Min_cycle;Max_cycle;Signal;HPM_P1;HPM_P2
2024/04/01 00:02:16;;;;;;;56.28;39.67;;;;;;;;;;4939323;28;20448;-67
2024/04/01 00:04:42;;;;;;;47.75;36.88;;;;;;;;;;4940311;28;20062;-67
2024/04/01 00:07:08;;;;;;;48.83;37.53;;;;;;;;;;4939842;28;20059;-66
2024/04/01 00:09:35;;;;;;;52.20;38.38;;;;;;;;;;4941205;28;20114;-66
2024/04/01 00:12:01;;;;;;;53.92;38.83;;;;;;;;;;4939387;28;20182;-66
2024/04/01 00:14:27;;;;;;;53.28;37.90;;;;;;;;;;4939125;28;20975;-67
2024/04/01 00:16:53;;;;;;;55.25;37.28;;;;;;;;;;4943023;28;20106;-66
2024/04/01 00:19:19;;;;;;;51.17;36.92;;;;;;;;;;4953309;28;20047;-67
2024/04/01 00:21:45;;;;;;;48.15;34.00;;;;;;;;;;4939628;28;20050;-67
2024/04/01 00:24:12;;;;;;;52.17;36.03;;;;;;;;;;4942476;28;20095;-67
2024/04/01 00:26:38;;;;;;;52.08;36.78;;;;;;;;;;4945329;28;20114;-66
2024/04/01 00:29:04;;;;;;;45.65;34.00;;;;;;;;;;4947415;28;20178;-66
2024/04/01 00:31:30;;;;;;;51.83;36.03;;;;;;;;;;4943530;28;20055;-67
2024/04/01 00:33:57;;;;;;;51.45;35.85;;;;;;;;;;4944409;28;20864;-66
2024/04/01 00:36:23;;;;;;;49.30;35.65;;;;;;;;;;4956555;28;20063;-66
2024/04/01 00:38:50;;;;;;;50.22;34.15;;;;;;;;;;4941959;28;20098;-67
2024/04/01 00:41:17;;;;;;;44.58;32.05;;;;;;;;;;4959769;28;20043;-66
2024/04/01 00:43:43;;;;;;;48.97;35.20;;;;;;;;;;4941487;28;20423;-66
2024/04/01 00:46:09;;;;;;;52.40;34.65;;;;;;;;;;4940951;28;20171;-67
2024/04/01 00:48:36;;;;;;;48.13;33.05;;;;;;;;;;4945174;28;20062;-66
2024/04/01 00:51:02;;;;;;;45.80;33.17;;;;;;;;;;4940032;28;20055;-66
2024/04/01 00:53:28;;;;;;;45.40;32.17;;;;;;;;;;4936699;28;20109;-66
2024/04/01 00:55:55;;;;;;;47.60;32.65;;;;;;;;;;4943960;28;20061;-67
2024/04/01 00:58:21;;;;;;;44.47;32.22;;;;;;;;;;4941545;28;20044;-66
2024/04/01 01:00:48;;;;;;;42.72;31.08;;;;;;;;;;4940999;28;20129;-66
2024/04/01 01:03:15;;;;;;;43.92;30.65;;;;;;;;;;4946463;28;20035;-66
2024/04/01 01:05:41;;;;;;;43.08;31.40;;;;;;;;;;4945142;28;20069;-66
2024/04/01 01:08:07;;;;;;;44.45;31.88;;;;;;;;;;4938176;28;20067;-66
2024/04/01 01:10:33;;;;;;;39.50;29.80;;;;;;;;;;4930496;29;20165;-66
2024/04/01 01:13:00;;;;;;;43.72;29.85;;;;;;;;;;4945712;28;20054;-66
2024/04/01 01:15:27;;;;;;;40.13;28.58;;;;;;;;;;4945831;28;20456;-66
2024/04/01 01:17:54;;;;;;;43.72;30.40;;;;;;;;;;4945781;28;20129;-66
2024/04/01 01:20:20;;;;;;;43.78;28.45;;;;;;;;;;4944471;28;20227;-66
2024/04/01 01:22:46;;;;;;;41.22;29.02;;;;;;;;;;4945506;28;20054;-66
2024/04/01 01:25:12;;;;;;;48.10;29.70;;;;;;;;;;4944985;28;20047;-66
2024/04/01 01:27:40;;;;;;;40.03;27.00;;;;;;;;;;4935293;28;20039;-66
2024/04/01 01:30:15;;;;;;;41.33;28.25;;;;;;;;;;4960554;28;20085;-66
2024/04/01 01:32:42;;;;;;;42.38;25.85;;;;;;;;;;4947143;28;20091;-66
2024/04/01 01:35:09;;;;;;;36.22;25.83;;;;;;;;;;4946488;28;20051;-66
2024/04/01 01:37:36;;;;;;;42.80;25.92;;;;;;;;;;4947461;28;20469;-66
2024/04/01 01:40:04;;;;;;;38.72;25.40;;;;;;;;;;4961219;28;20103;-66
2024/04/01 01:42:30;;;;;;;36.45;24.77;;;;;;;;;;4945633;28;20141;-67
2024/04/01 01:44:56;;;;;;;45.72;26.05;;;;;;;;;;4945890;28;20493;-66
2024/04/01 01:47:22;;;;;;;34.67;24.15;;;;;;;;;;4946258;28;20051;-66
2024/04/01 01:49:48;;;;;;;34.63;24.20;;;;;;;;;;4945418;28;20043;-66
2024/04/01 01:52:15;;;;;;;36.60;23.92;;;;;;;;;;4945492;28;20499;-66
2024/04/01 01:54:41;;;;;;;32.42;24.25;;;;;;;;;;4944599;28;20117;-66
2024/04/01 01:57:07;;;;;;;39.58;25.48;;;;;;;;;;4945864;28;20325;-66
2024/04/01 01:59:33;;;;;;;35.15;24.23;;;;;;;;;;4946255;28;20060;-66
2024/04/01 02:01:59;;;;;;;36.35;24.27;;;;;;;;;;4944647;28;20058;-66
2024/04/01 02:04:25;;;;;;;36.60;24.80;;;;;;;;;;4955235;28;20043;-67
2024/04/01 02:06:52;;;;;;;36.53;25.05;;;;;;;;;;4941954;28;20074;-66
2024/04/01 02:09:18;;;;;;;40.60;25.83;;;;;;;;;;4949782;28;20055;-66
2024/04/01 02:11:44;;;;;;;34.22;24.27;;;;;;;;;;4950302;28;20054;-66
2024/04/01 02:14:10;;;;;;;37.72;25.77;;;;;;;;;;4948148;28;20464;-66
2024/04/01 02:16:36;;;;;;;35.05;24.92;;;;;;;;;;4950424;28;20142;-66
2024/04/01 02:19:03;;;;;;;37.28;24.15;;;;;;;;;;4947779;28;20070;-66
2024/04/01 02:21:29;;;;;;;36.10;24.52;;;;;;;;;;4948115;28;20094;-66
2024/04/01 02:23:56;;;;;;;37.00;25.10;;;;;;;;;;4949369;28;20198;-66
2024/04/01 02:26:23;;;;;;;35.13;25.67;;;;;;;;;;4948923;28;20396;-66
2024/04/01 02:28:49;;;;;;;44.33;25.13;;;;;;;;;;4949835;28;20122;-66
2024/04/01 02:31:17;;;;;;;35.58;24.73;;;;;;;;;;4945379;28;21736;-66
2024/04/01 02:33:44;;;;;;;39.65;26.05;;;;;;;;;;4945881;28;20085;-66
2024/04/01 02:36:10;;;;;;;36.42;25.42;;;;;;;;;;4948150;28;20070;-66
2024/04/01 02:38:37;;;;;;;41.50;26.65;;;;;;;;;;4963437;28;20043;-66
2024/04/01 02:41:03;;;;;;;41.80;25.60;;;;;;;;;;4949123;28;20491;-66
2024/04/01 02:43:29;;;;;;;38.08;25.88;;;;;;;;;;4946212;28;20070;-66
2024/04/01 02:45:56;;;;;;;41.25;26.77;;;;;;;;;;4949295;28;20039;-66
2024/04/01 02:48:22;;;;;;;42.25;28.25;;;;;;;;;;4946714;28;20047;-66
2024/04/01 02:50:48;;;;;;;42.33;26.55;;;;;;;;;;4949998;28;20356;-66
2024/04/01 02:53:14;;;;;;;40.70;27.65;;;;;;;;;;4947549;29;20074;-66
2024/04/01 02:55:40;;;;;;;47.63;28.20;;;;;;;;;;4946924;29;20040;-66
2024/04/01 02:58:06;;;;;;;39.80;27.23;;;;;;;;;;4950618;29;20394;-66
2024/04/01 03:00:33;;;;;;;38.63;27.00;;;;;;;;;;4964853;28;20047;-66
2024/04/01 03:02:59;;;;;;;44.97;28.33;;;;;;;;;;4948772;28;20238;-66
2024/04/01 03:05:27;;;;;;;39.17;25.55;;;;;;;;;;4949256;29;20165;-66
2024/04/01 03:07:53;;;;;;;43.67;29.02;;;;;;;;;;4960526;28;22039;-66
2024/04/01 03:10:19;;;;;;;41.58;27.15;;;;;;;;;;4950187;28;20065;-66
2024/04/01 03:12:47;;;;;;;42.45;27.33;;;;;;;;;;4952294;28;20066;-66
2024/04/01 03:15:16;;;;;;;41.75;27.70;;;;;;;;;;4964391;28;20401;-66
2024/04/01 03:17:44;;;;;;;39.92;25.60;;;;;;;;;;4963240;28;20101;-66
2024/04/01 03:20:12;;;;;;;43.47;27.08;;;;;;;;;;4965093;28;20130;-65
2024/04/01 03:22:39;;;;;;;45.15;27.55;;;;;;;;;;4960744;28;20050;-66
2024/04/01 03:25:05;;;;;;;38.47;26.92;;;;;;;;;;4950536;28;20062;-66
2024/04/01 03:27:32;;;;;;;40.97;27.33;;;;;;;;;;4952616;28;20051;-66
2024/04/01 03:29:58;;;;;;;41.45;26.88;;;;;;;;;;4951127;28;20050;-66
2024/04/01 03:32:25;;;;;;;42.17;28.15;;;;;;;;;;4951331;28;20398;-66
2024/04/01 03:34:51;;;;;;;41.85;28.67;;;;;;;;;;4967661;28;20050;-66
2024/04/01 03:37:17;;;;;;;43.05;27.88;;;;;;;;;;4969314;28;20050;-66
2024/04/01 03:39:44;;;;;;;39.60;26.73;;;;;;;;;;4947511;28;20077;-66
2024/04/01 03:42:11;;;;;;;40.05;28.60;;;;;;;;;;4966005;28;20051;-66
2024/04/01 03:44:37;;;;;;;43.70;28.92;;;;;;;;;;4968731;28;20074;-66
2024/04/01 03:47:04;;;;;;;40.30;27.80;;;;;;;;;;4969023;28;20577;-66
2024/04/01 03:49:30;;;;;;;43.28;29.88;;;;;;;;;;4966623;28;20398;-66
2024/04/01 03:51:56;;;;;;;40.65;28.70;;;;;;;;;;4950983;28;20153;-66
2024/04/01 03:54:22;;;;;;;40.47;28.42;;;;;;;;;;4952810;28;20039;-66
2024/04/01 03:56:49;;;;;;;44.97;29.23;;;;;;;;;;4966620;28;20123;-66
2024/04/01 03:59:15;;;;;;;50.20;30.55;;;;;;;;;;4968075;28;20058;-66
2024/04/01 04:01:44;;;;;;;44.42;29.85;;;;;;;;;;4939054;28;20056;-66
2024/04/01 04:04:11;;;;;;;42.95;30.50;;;;;;;;;;4967396;28;20138;-66
2024/04/01 04:06:38;;;;;;;44.10;30.15;;;;;;;;;;4965281;28;20051;-66
2024/04/01 04:09:04;;;;;;;41.78;30.50;;;;;;;;;;4946913;28;20105;-66
2024/04/01 04:11:30;;;;;;;42.60;29.77;;;;;;;;;;4966957;28;20125;-66
2024/04/01 04:13:56;;;;;;;48.03;31.08;;;;;;;;;;4948913;28;20122;-66
2024/04/01 04:16:23;;;;;;;46.67;30.40;;;;;;;;;;4967805;28;20043;-66
2024/04/01 04:18:50;;;;;;;44.28;31.83;;;;;;;;;;4966163;28;20398;-66
2024/04/01 04:21:16;;;;;;;40.00;29.75;;;;;;;;;;4950795;28;20058;-66
2024/04/01 04:23:44;;;;;;;43.80;31.45;;;;;;;;;;4949132;28;20039;-66
2024/04/01 04:26:10;;;;;;;43.95;32.00;;;;;;;;;;4948457;28;20125;-66
2024/04/01 04:28:36;;;;;;;41.38;30.42;;;;;;;;;;4948431;28;20079;-66
2024/04/01 04:31:02;;;;;;;40.63;30.90;;;;;;;;;;4962112;28;20057;-66
2024/04/01 04:33:28;;;;;;;42.83;32.40;;;;;;;;;;4946306;28;20105;-66
2024/04/01 04:35:55;;;;;;;43.70;29.77;;;;;;;;;;4966126;28;20078;-66
2024/04/01 04:38:21;;;;;;;40.90;30.10;;;;;;;;;;4945533;28;20047;-66
2024/04/01 04:40:47;;;;;;;44.90;31.70;;;;;;;;;;4948465;28;20202;-66
2024/04/01 04:43:13;;;;;;;44.33;30.38;;;;;;;;;;4949480;28;20351;-66
2024/04/01 04:45:47;;;;;;;43.78;31.35;;;;;;;;;;4948194;28;20047;-66
2024/04/01 04:48:14;;;;;;;48.60;32.28;;;;;;;;;;4948671;28;20138;-66
2024/04/01 04:50:40;;;;;;;42.58;30.88;;;;;;;;;;4948284;28;20561;-64
2024/04/01 04:53:07;;;;;;;46.22;30.42;;;;;;;;;;4950784;28;20931;-66
2024/04/01 04:55:33;;;;;;;43.60;28.77;;;;;;;;;;4949861;28;20080;-66
2024/04/01 04:57:59;;;;;;;41.83;30.83;;;;;;;;;;4966197;28;20050;-66
2024/04/01 05:00:25;;;;;;;48.85;33.13;;;;;;;;;;4949475;28;20051;-66
2024/04/01 05:02:51;;;;;;;42.17;30.20;;;;;;;;;;4949434;28;20086;-64
2024/04/01 05:05:18;;;;;;;47.83;34.95;;;;;;;;;;4966060;28;20113;-64
2024/04/01 05:07:45;;;;;;;46.38;31.48;;;;;;;;;;4964348;28;20561;-65
2024/04/01 05:10:12;;;;;;;41.90;30.77;;;;;;;;;;4965939;28;20043;-66
2024/04/01 05:12:38;;;;;;;46.50;30.17;;;;;;;;;;4964060;28;20471;-64
2024/04/01 05:15:06;;;;;;;41.15;31.33;;;;;;;;;;4947570;28;20087;-69
2024/04/01 05:17:33;;;;;;;47.25;32.22;;;;;;;;;;4966755;28;20518;-65
2024/04/01 05:19:59;;;;;;;47.40;35.10;;;;;;;;;;4949780;28;20142;-65
2024/04/01 05:22:26;;;;;;;43.35;32.95;;;;;;;;;;4952660;28;20051;-65
2024/04/01 05:24:52;;;;;;;49.33;35.70;;;;;;;;;;4963998;28;20068;-65
2024/04/01 05:27:19;;;;;;;55.95;37.50;;;;;;;;;;4963703;28;20050;-65
2024/04/01 05:29:45;;;;;;;44.15;34.63;;;;;;;;;;4966397;28;20058;-65
2024/04/01 05:32:11;;;;;;;43.70;31.70;;;;;;;;;;4948756;28;20043;-65
2024/04/01 05:34:37;;;;;;;44.80;31.50;;;;;;;;;;4961832;28;20386;-64
2024/04/01 05:37:05;;;;;;;37.17;31.92;;;;;;;;;;4944651;28;20053;-65
2024/04/01 05:39:31;;;;;;;50.85;35.13;;;;;;;;;;4947434;28;20463;-65
2024/04/01 05:41:57;;;;;;;44.25;33.13;;;;;;;;;;4947323;28;20057;-65
2024/04/01 05:44:24;;;;;;;52.30;32.67;;;;;;;;;;4962610;28;20427;-65
2024/04/01 05:46:50;;;;;;;49.20;35.38;;;;;;;;;;4962156;28;20053;-65
2024/04/01 05:49:16;;;;;;;52.97;37.33;;;;;;;;;;4964871;28;20061;-65
2024/04/01 05:51:42;;;;;;;45.28;34.50;;;;;;;;;;4964273;28;20051;-65
2024/04/01 05:54:08;;;;;;;52.15;37.25;;;;;;;;;;4951777;28;20398;-65
2024/04/01 05:56:35;;;;;;;46.80;36.60;;;;;;;;;;4963856;28;20043;-65
2024/04/01 05:59:01;;;;;;;51.30;35.15;;;;;;;;;;4947455;28;20121;-65
2024/04/01 06:01:27;;;;;;;55.40;38.40;;;;;;;;;;4963602;28;20382;-66
2024/04/01 06:03:53;;;;;;;56.63;40.20;;;;;;;;;;4946859;28;20162;-66
2024/04/01 06:06:20;;;;;;;47.90;37.88;;;;;;;;;;4947547;28;20046;-66
2024/04/01 06:08:46;;;;;;;51.45;35.50;;;;;;;;;;4944874;28;20050;-66
2024/04/01 06:11:12;;;;;;;47.28;32.67;;;;;;;;;;4947557;28;20105;-67
2024/04/01 06:13:38;;;;;;;47.15;36.22;;;;;;;;;;4964946;28;20459;-66
2024/04/01 06:16:06;;;;;;;47.20;37.40;;;;;;;;;;4965592;28;20082;-67
2024/04/01 06:18:32;;;;;;;48.15;35.55;;;;;;;;;;4947602;28;20154;-66
2024/04/01 06:20:58;;;;;;;49.55;35.13;;;;;;;;;;4947438;28;20125;-66
2024/04/01 06:23:24;;;;;;;54.70;40.20;;;;;;;;;;4960419;28;20406;-67
2024/04/01 06:25:50;;;;;;;49.85;37.42;;;;;;;;;;4948072;28;20103;-66
2024/04/01 06:28:17;;;;;;;48.80;37.88;;;;;;;;;;4946093;28;20098;-65
2024/04/01 06:30:43;;;;;;;51.22;37.67;;;;;;;;;;4960404;28;20455;-64
2024/04/01 06:33:09;;;;;;;54.33;38.75;;;;;;;;;;4942150;28;20047;-66
2024/04/01 06:35:35;;;;;;;62.08;43.75;;;;;;;;;;4966050;28;20078;-66
2024/04/01 06:38:01;;;;;;;53.00;40.08;;;;;;;;;;4946087;28;20061;-66
2024/04/01 06:40:27;;;;;;;51.47;39.47;;;;;;;;;;4963346;28;20043;-66
2024/04/01 06:42:53;;;;;;;53.63;38.38;;;;;;;;;;4964823;28;20039;-67
2024/04/01 06:45:20;;;;;;;49.72;39.10;;;;;;;;;;4962963;28;20435;-66
2024/04/01 06:47:46;;;;;;;49.08;38.85;;;;;;;;;;4960448;28;20150;-66
2024/04/01 06:50:13;;;;;;;48.53;39.08;;;;;;;;;;4963176;28;20415;-66
2024/04/01 06:52:39;;;;;;;51.38;40.50;;;;;;;;;;4964676;28;20097;-66
2024/04/01 06:55:05;;;;;;;51.42;39.20;;;;;;;;;;4968455;28;20426;-67
2024/04/01 06:57:31;;;;;;;51.47;40.47;;;;;;;;;;4951187;28;20053;-67
2024/04/01 06:59:58;;;;;;;48.45;39.08;;;;;;;;;;4950415;28;20046;-67
2024/04/01 07:02:25;;;;;;;53.85;38.97;;;;;;;;;;4968115;28;20462;-67
2024/04/01 07:04:51;;;;;;;47.80;39.72;;;;;;;;;;4966451;28;20047;-66
2024/04/01 07:07:19;;;;;;;53.42;42.65;;;;;;;;;;4948400;28;20055;-67
2024/04/01 07:09:46;;;;;;;46.33;37.78;;;;;;;;;;4967123;28;20083;-67
2024/04/01 07:12:13;;;;;;;49.55;39.15;;;;;;;;;;4965945;28;20149;-67
2024/04/01 07:14:39;;;;;;;51.03;41.40;;;;;;;;;;4963843;28;20046;-67
2024/04/01 07:17:05;;;;;;;49.00;39.78;;;;;;;;;;4964814;28;20054;-67
2024/04/01 07:19:31;;;;;;;54.10;40.92;;;;;;;;;;4952353;28;20043;-67
2024/04/01 07:21:58;;;;;;;50.75;40.10;;;;;;;;;;4963570;28;20062;-67
2024/04/01 07:24:24;;;;;;;47.83;38.08;;;;;;;;;;4949296;28;20062;-67
2024/04/01 07:26:50;;;;;;;49.40;37.75;;;;;;;;;;4961179;28;20129;-67
2024/04/01 07:29:17;;;;;;;48.55;38.95;;;;;;;;;;4950843;28;20046;-67
2024/04/01 07:31:43;;;;;;;51.55;39.03;;;;;;;;;;4966026;28;20043;-67
2024/04/01 07:34:09;;;;;;;52.50;38.55;;;;;;;;;;4964309;28;20050;-66
2024/04/01 07:36:35;;;;;;;49.55;37.13;;;;;;;;;;4963716;28;20204;-66
2024/04/01 07:39:02;;;;;;;51.65;37.92;;;;;;;;;;4963567;28;20051;-66
2024/04/01 07:41:28;;;;;;;45.95;37.03;;;;;;;;;;4966517;28;20047;-67
2024/04/01 07:43:54;;;;;;;48.35;36.92;;;;;;;;;;4963742;28;20054;-67
2024/04/01 07:46:20;;;;;;;48.03;39.05;;;;;;;;;;4961850;28;20145;-66
2024/04/01 07:48:47;;;;;;;48.78;40.17;;;;;;;;;;4943753;28;20043;-67
2024/04/01 07:51:13;;;;;;;49.22;38.00;;;;;;;;;;4964544;28;20058;-67
2024/04/01 07:53:39;;;;;;;42.10;35.33;;;;;;;;;;4947197;28;20055;-67
2024/04/01 07:56:06;;;;;;;57.42;39.08;;;;;;;;;;4945126;28;21457;-67
2024/04/01 07:58:32;;;;;;;49.38;37.78;;;;;;;;;;4967721;28;20082;-67
2024/04/01 08:00:59;;;;;;;44.30;36.88;;;;;;;;;;4968610;28;20518;-67
2024/04/01 08:03:25;;;;;;;50.67;37.33;;;;;;;;;;4971758;28;20038;-67
2024/04/01 08:05:51;;;;;;;47.88;38.85;;;;;;;;;;4964465;28;20041;-67
2024/04/01 08:08:17;;;;;;;46.30;37.13;;;;;;;;;;4962073;28;20055;-67
2024/04/01 08:10:47;;;;;;;48.20;38.25;;;;;;;;;;4947929;28;20058;-67
2024/04/01 08:13:13;;;;;;;46.53;38.83;;;;;;;;;;4947051;28;20043;-67
2024/04/01 08:15:39;;;;;;;47.58;36.70;;;;;;;;;;4963861;28;20517;-67
2024/04/01 08:18:06;;;;;;;47.30;37.58;;;;;;;;;;4958142;28;20145;-68
2024/04/01 08:20:32;;;;;;;50.30;37.75;;;;;;;;;;4946010;28;20521;-67
2024/04/01 08:22:58;;;;;;;44.75;37.95;;;;;;;;;;4944786;28;20050;-67
2024/04/01 08:25:24;;;;;;;50.30;36.50;;;;;;;;;;4963408;28;20490;-67
2024/04/01 08:27:50;;;;;;;46.10;37.30;;;;;;;;;;4962331;28;21463;-65
2024/04/01 08:30:16;;;;;;;48.50;37.40;;;;;;;;;;4944775;28;20143;-67
2024/04/01 08:32:43;;;;;;;44.20;35.42;;;;;;;;;;4946351;28;20078;-67
2024/04/01 08:35:09;;;;;;;49.17;36.47;;;;;;;;;;4944027;28;20043;-67
2024/04/01 08:37:35;;;;;;;45.88;34.13;;;;;;;;;;4956371;28;20109;-68
2024/04/01 08:40:01;;;;;;;43.25;35.83;;;;;;;;;;4945603;28;20172;-68
2024/04/01 08:42:29;;;;;;;43.58;37.20;;;;;;;;;;4949332;28;20152;-67
2024/04/01 08:44:58;;;;;;;47.28;35.03;;;;;;;;;;4947788;28;20105;-67
2024/04/01 08:47:25;;;;;;;42.65;33.67;;;;;;;;;;4947755;28;20136;-67
2024/04/01 08:49:58;;;;;;;41.22;33.95;;;;;;;;;;4947339;28;20125;-68
2024/04/01 08:52:25;;;;;;;41.17;31.73;;;;;;;;;;4947243;28;20178;-67
2024/04/01 08:54:52;;;;;;;37.83;28.30;;;;;;;;;;4962484;28;20041;-67
2024/04/01 08:57:18;;;;;;;37.03;29.63;;;;;;;;;;4964729;28;20061;-67
2024/04/01 08:59:45;;;;;;;34.15;26.88;;;;;;;;;;4964996;28;20125;-67
2024/04/01 09:02:11;;;;;;;35.53;26.33;;;;;;;;;;4958562;28;20046;-67
2024/04/01 09:04:37;;;;;;;35.95;25.25;;;;;;;;;;4964849;28;20046;-67
2024/04/01 09:07:03;;;;;;;29.35;24.95;;;;;;;;;;4962639;28;20055;-67
2024/04/01 09:09:29;;;;;;;38.80;27.73;;;;;;;;;;4948894;28;20054;-66
2024/04/01 09:11:56;;;;;;;33.47;24.75;;;;;;;;;;4965672;28;20553;-67
2024/04/01 09:14:23;;;;;;;30.63;24.63;;;;;;;;;;4964072;28;20082;-67
2024/04/01 09:16:49;;;;;;;31.17;24.58;;;;;;;;;;4948374;28;20122;-67
2024/04/01 09:19:17;;;;;;;36.53;26.80;;;;;;;;;;4966131;28;20450;-67
2024/04/01 09:21:43;;;;;;;30.10;24.27;;;;;;;;;;4964628;28;20166;-67
2024/04/01 09:24:10;;;;;;;32.08;24.13;;;;;;;;;;4946538;28;20046;-67
2024/04/01 09:26:36;;;;;;;36.47;26.40;;;;;;;;;;4947425;28;20051;-67
2024/04/01 09:29:03;;;;;;;33.58;24.13;;;;;;;;;;4963969;28;20043;-67
2024/04/01 09:31:29;;;;;;;33.92;23.42;;;;;;;;;;4943012;28;20169;-67
2024/04/01 09:33:55;;;;;;;35.45;22.90;;;;;;;;;;4963914;28;20114;-67
2024/04/01 09:36:22;;;;;;;32.63;23.73;;;;;;;;;;4964906;28;20154;-67
2024/04/01 09:38:51;;;;;;;28.95;22.40;;;;;;;;;;4966102;28;20043;-67
2024/04/01 09:41:18;;;;;;;34.85;23.02;;;;;;;;;;4965405;28;20412;-67
2024/04/01 09:43:44;;;;;;;29.20;21.90;;;;;;;;;;4964945;28;20043;-67
2024/04/01 09:46:11;;;;;;;28.20;20.15;;;;;;;;;;4961096;28;20491;-67
2024/04/01 09:48:37;;;;;;;26.67;20.35;;;;;;;;;;4965214;28;20105;-67
2024/04/01 09:51:05;;;;;;;21.90;17.15;;;;;;;;;;4944928;28;20094;-67
2024/04/01 09:53:31;;;;;;;26.60;18.50;;;;;;;;;;4947738;28;20101;-66
2024/04/01 09:56:00;;;;;;;22.75;17.38;;;;;;;;;;4943403;28;20050;-67
2024/04/01 09:58:35;;;;;;;23.42;17.90;;;;;;;;;;4945486;28;20039;-67
2024/04/01 10:01:20;;;;;;;27.67;17.85;;;;;;;;;;4946665;28;20072;-67
2024/04/01 10:03:53;;;;;;;24.50;17.30;;;;;;;;;;4962148;28;20086;-67
2024/04/01 10:06:38;;;;;;;23.30;17.13;;;;;;;;;;4964774;28;20125;-71
2024/04/01 10:09:04;;;;;;;27.60;19.70;;;;;;;;;;4962056;28;20055;-67
2024/04/01 10:11:46;;;;;;;27.42;21.55;;;;;;;;;;4947461;28;20081;-67
2024/04/01 10:14:17;;;;;;;24.48;21.75;;;;;;;;;;4947911;28;20410;-67
2024/04/01 10:17:01;;;;;;;30.30;23.20;;;;;;;;;;4961658;28;20435;-67
2024/04/01 10:19:39;;;;;;;30.48;23.50;;;;;;;;;;4965159;28;20410;-67
2024/04/01 10:22:16;;;;;;;30.63;23.70;;;;;;;;;;4963504;28;20402;-67
2024/04/01 10:24:56;;;;;;;30.95;23.83;;;;;;;;;;4942700;28;20164;-67
2024/04/01 10:27:22;;;;;;;30.50;22.55;;;;;;;;;;4945665;28;20050;-67
2024/04/01 10:29:52;;;;;;;30.17;24.88;;;;;;;;;;4948769;28;20054;-67
2024/04/01 10:32:22;;;;;;;35.03;27.15;;;;;;;;;;4960277;28;20047;-67
2024/04/01 10:35:09;;;;;;;36.55;28.23;;;;;;;;;;4964057;28;20101;-67
2024/04/01 10:37:40;;;;;;;35.97;29.60;;;;;;;;;;4948635;28;20073;-67
2024/04/01 10:40:15;;;;;;;40.47;32.30;;;;;;;;;;4951088;28;20055;-67
2024/04/01 10:42:51;;;;;;;38.65;30.80;;;;;;;;;;4966693;28;20078;-67
2024/04/01 10:45:41;;;;;;;37.85;30.70;;;;;;;;;;4964804;28;20423;-65
2024/04/01 10:48:25;;;;;;;39.53;30.88;;;;;;;;;;4944162;28;20503;-65
2024/04/01 10:51:10;;;;;;;36.75;30.02;;;;;;;;;;4931516;28;20486;-65
2024/04/01 10:53:36;;;;;;;38.58;30.42;;;;;;;;;;4950874;28;20101;-65
2024/04/01 10:56:38;;;;;;;35.63;29.60;;;;;;;;;;4947084;28;20059;-64
2024/04/01 10:59:08;;;;;;;38.42;31.30;;;;;;;;;;4947271;28;20054;-67
2024/04/01 11:01:43;;;;;;;34.53;30.65;;;;;;;;;;4950483;28;20070;-67
2024/04/01 11:04:25;;;;;;;36.20;30.13;;;;;;;;;;4961881;28;20086;-67
2024/04/01 11:07:00;;;;;;;32.13;25.95;;;;;;;;;;4954079;28;20075;-67
2024/04/01 11:09:38;;;;;;;29.40;25.23;;;;;;;;;;4965091;28;21918;-67
2024/04/01 11:12:04;;;;;;;30.27;22.48;;;;;;;;;;4944641;28;20051;-67
2024/04/01 11:14:32;;;;;;;24.98;20.50;;;;;;;;;;4959922;28;20368;-67
2024/04/01 11:17:01;;;;;;;26.00;21.33;;;;;;;;;;4968435;28;20054;-67
2024/04/01 11:19:44;;;;;;;23.92;20.30;;;;;;;;;;4967068;28;20078;-67
2024/04/01 11:22:16;;;;;;;24.55;21.65;;;;;;;;;;4964911;28;20158;-67
2024/04/01 11:24:49;;;;;;;25.48;21.33;;;;;;;;;;4949680;28;20406;-67
2024/04/01 11:27:22;;;;;;;24.95;20.60;;;;;;;;;;4961489;28;20441;-66
2024/04/01 11:30:00;;;;;;;27.98;18.42;;;;;;;;;;4963875;28;20063;-67
2024/04/01 11:32:33;;;;;;;20.42;18.13;;;;;;;;;;4949689;28;20523;-67
2024/04/01 11:35:03;;;;;;;20.15;16.05;;;;;;;;;;4925297;28;20487;-67
2024/04/01 11:37:40;;;;;;;20.30;16.55;;;;;;;;;;4949498;28;20054;-67
2024/04/01 11:40:09;;;;;;;19.75;14.80;;;;;;;;;;4960623;28;20057;-67
2024/04/01 11:42:36;;;;;;;18.98;13.90;;;;;;;;;;4956293;28;20054;-67
2024/04/01 11:45:05;;;;;;;17.13;12.80;;;;;;;;;;4945591;28;20099;-67
2024/04/01 11:47:31;;;;;;;18.33;13.23;;;;;;;;;;4943045;28;20513;-67
2024/04/01 11:49:57;;;;;;;18.88;12.65;;;;;;;;;;4964828;28;20061;-67
2024/04/01 11:52:26;;;;;;;16.20;12.73;;;;;;;;;;4959078;28;20039;-67
2024/04/01 11:54:52;;;;;;;16.42;10.75;;;;;;;;;;4949260;28;20061;-67
2024/04/01 11:57:22;;;;;;;13.13;10.10;;;;;;;;;;4966564;28;20419;-67
2024/04/01 11:59:49;;;;;;;12.48;9.15;;;;;;;;;;4954265;28;20101;-67
2024/04/01 12:02:15;;;;;;;12.50;10.02;;;;;;;;;;4945585;28;20069;-67
2024/04/01 12:04:41;;;;;;;12.50;10.10;;;;;;;;;;4964647;28;20459;-66
2024/04/01 12:07:07;;;;;;;12.57;8.10;;;;;;;;;;4958849;28;20105;-67
2024/04/01 12:09:34;;;;;;;10.02;7.85;;;;;;;;;;4946425;28;20050;-67
2024/04/01 12:12:01;;;;;;;11.80;7.60;;;;;;;;;;4947999;28;20549;-67
2024/04/01 12:14:28;;;;;;;9.57;7.60;;;;;;;;;;4962794;28;20046;-64
2024/04/01 12:16:58;;;;;;;11.68;8.70;;;;;;;;;;4946133;28;20050;-67
2024/04/01 12:19:25;;;;;;;12.07;9.85;;;;;;;;;;4943326;28;20038;-67
2024/04/01 12:21:52;;;;;;;12.48;9.05;;;;;;;;;;4945466;28;20074;-67
2024/04/01 12:24:19;;;;;;;10.63;7.95;;;;;;;;;;4964922;28;20035;-67
2024/04/01 12:26:50;;;;;;;11.73;7.05;;;;;;;;;;4962686;28;20138;-66
2024/04/01 12:29:17;;;;;;;10.25;7.82;;;;;;;;;;4964625;28;20478;-66
2024/04/01 12:31:46;;;;;;;10.13;7.10;;;;;;;;;;4951830;28;20050;-66
2024/04/01 12:34:13;;;;;;;11.02;7.38;;;;;;;;;;4968273;28;20125;-66
2024/04/01 12:36:40;;;;;;;12.30;7.68;;;;;;;;;;4968225;28;20088;-66
2024/04/01 12:39:08;;;;;;;12.15;7.85;;;;;;;;;;4966169;28;20478;-66
2024/04/01 12:41:34;;;;;;;11.75;8.27;;;;;;;;;;4967848;28;20101;-66
2024/04/01 12:44:01;;;;;;;12.90;8.55;;;;;;;;;;4966432;28;20039;-66
2024/04/01 12:46:28;;;;;;;9.75;7.03;;;;;;;;;;4969257;28;20051;-66
2024/04/01 12:48:55;;;;;;;10.82;7.28;;;;;;;;;;4951250;28;20043;-66
2024/04/01 12:51:25;;;;;;;10.00;6.97;;;;;;;;;;4950147;28;20053;-66
2024/04/01 12:54:15;;;;;;;10.18;6.78;;;;;;;;;;4968391;28;20148;-66
2024/04/01 12:56:41;;;;;;;13.70;6.35;;;;;;;;;;4949777;28;20170;-66
2024/04/01 12:59:11;;;;;;;7.95;5.45;;;;;;;;;;4942357;28;20062;-66
2024/04/01 13:01:38;;;;;;;7.78;6.20;;;;;;;;;;4960005;28;20498;-66
2024/04/01 13:04:13;;;;;;;10.88;6.00;;;;;;;;;;4945806;28;20086;-66
2024/04/01 13:06:48;;;;;;;9.00;5.90;;;;;;;;;;4947389;28;20189;-66
2024/04/01 13:09:17;;;;;;;11.52;5.80;;;;;;;;;;4963087;28;20368;-66
2024/04/01 13:11:43;;;;;;;8.38;5.20;;;;;;;;;;4945540;28;20082;-63
2024/04/01 13:14:24;;;;;;;9.60;5.45;;;;;;;;;;4942906;28;20053;-63
2024/04/01 13:16:51;;;;;;;9.38;5.00;;;;;;;;;;4947076;28;20043;-64
2024/04/01 13:19:25;;;;;;;8.60;3.65;;;;;;;;;;4946129;28;20149;-64
2024/04/01 13:22:01;;;;;;;7.75;4.10;;;;;;;;;;4964922;28;20074;-69
2024/04/01 13:24:31;;;;;;;8.73;4.93;;;;;;;;;;4964208;28;20554;-66
2024/04/01 13:27:03;;;;;;;10.80;3.72;;;;;;;;;;4962612;28;20046;-65
2024/04/01 13:29:48;;;;;;;8.90;3.70;;;;;;;;;;4962706;28;20065;-65
2024/04/01 13:32:24;;;;;;;6.57;3.55;;;;;;;;;;4945301;28;20070;-65
2024/04/01 13:35:04;;;;;;;6.10;2.85;;;;;;;;;;4963777;28;20141;-65
2024/04/01 13:37:36;;;;;;;7.20;2.33;;;;;;;;;;4946304;28;20039;-65
2024/04/01 13:40:14;;;;;;;8.88;3.50;;;;;;;;;;4963598;28;20620;-65
2024/04/01 13:42:41;;;;;;;7.22;2.70;;;;;;;;;;4947849;28;20062;-65
2024/04/01 13:45:20;;;;;;;5.78;2.00;;;;;;;;;;4947368;28;20166;-65
2024/04/01 13:47:46;;;;;;;5.55;2.10;;;;;;;;;;4946733;28;20356;-65
2024/04/01 13:50:13;;;;;;;7.20;2.20;;;;;;;;;;4945143;28;20066;-66
2024/04/01 13:52:52;;;;;;;5.72;2.10;;;;;;;;;;4962439;28;20498;-65
2024/04/01 13:55:21;;;;;;;6.65;2.33;;;;;;;;;;4946098;28;20126;-66
2024/04/01 13:57:55;;;;;;;6.10;2.60;;;;;;;;;;4948399;28;20051;-65
2024/04/01 14:00:26;;;;;;;6.38;2.03;;;;;;;;;;4945796;28;20145;-66
2024/04/01 14:02:54;;;;;;;10.05;2.50;;;;;;;;;;4961318;28;20054;-66
2024/04/01 14:05:21;;;;;;;15.18;2.50;;;;;;;;;;4963616;28;20051;-66
2024/04/01 14:07:56;;;;;;;7.63;2.15;;;;;;;;;;4961606;28;20164;-66
2024/04/01 14:10:44;;;;;;;8.00;2.47;;;;;;;;;;4964131;28;20054;-65
2024/04/01 14:13:20;;;;;;;8.55;2.08;;;;;;;;;;4962233;28;20051;-66
2024/04/01 14:15:49;;;;;;;6.55;2.00;;;;;;;;;;4965672;28;20122;-66
2024/04/01 14:18:25;;;;;;;7.13;2.63;;;;;;;;;;4946335;28;20058;-66
2024/04/01 14:20:52;;;;;;;6.47;2.15;;;;;;;;;;4949808;28;20450;-66
2024/04/01 14:23:18;;;;;;;17.23;2.60;;;;;;;;;;4963238;28;20042;-65
2024/04/01 14:25:45;;;;;;;9.85;2.33;;;;;;;;;;4947234;28;20050;-66
2024/04/01 14:28:11;;;;;;;7.97;1.90;;;;;;;;;;4965051;28;20482;-66